createdAt,value
2023-03-25T00:00:18.840Z,1.67
2023-03-25T00:02:47.736Z,2.00
2023-03-25T00:05:15.864Z,1.83
2023-03-25T00:07:43.368Z,1.83
2023-03-25T00:10:10.543Z,3.00
2023-03-25T00:12:38.540Z,2.13
2023-03-25T00:15:09.451Z,1.73
2023-03-25T00:17:36.840Z,1.50
2023-03-25T00:20:11.328Z,1.50
2023-03-25T00:22:41.284Z,1.80
2023-03-25T00:25:17.734Z,1.67
2023-03-25T00:27:46.448Z,1.40
2023-03-25T00:30:17.066Z,1.40
2023-03-25T00:32:50.495Z,1.97
2023-03-25T00:35:19.966Z,1.53
2023-03-25T00:37:52.296Z,1.53
2023-03-25T00:40:19.162Z,1.63
2023-03-25T00:42:50.606Z,1.73
2023-03-25T00:45:17.255Z,2.20
2023-03-25T00:47:43.928Z,1.43
2023-03-25T00:50:10.965Z,1.80
2023-03-25T00:52:37.470Z,1.93
2023-03-25T00:55:05.068Z,1.67
2023-03-25T00:57:32.178Z,1.73
2023-03-25T00:59:58.823Z,1.67
2023-03-25T01:02:25.405Z,2.70
2023-03-25T01:04:51.974Z,1.93
2023-03-25T01:07:20.436Z,2.00
2023-03-25T01:09:47.917Z,1.80
2023-03-25T01:12:15.695Z,1.97
2023-03-25T01:14:43.035Z,1.93
2023-03-25T01:17:09.662Z,1.90
2023-03-25T01:19:36.215Z,2.00
2023-03-25T01:22:02.966Z,2.00
2023-03-25T01:24:29.469Z,2.40
2023-03-25T01:26:56.154Z,2.03
2023-03-25T01:29:23.147Z,2.30
2023-03-25T01:31:49.832Z,2.93
2023-03-25T01:34:17.035Z,1.77
2023-03-25T01:36:46.616Z,2.23
2023-03-25T01:39:16.691Z,2.07
2023-03-25T01:41:49.754Z,2.27
2023-03-25T01:44:19.801Z,2.33
2023-03-25T01:46:49.719Z,3.53
2023-03-25T01:49:47.074Z,1.70
2023-03-25T01:52:20.010Z,1.80
2023-03-25T01:54:47.678Z,1.93
2023-03-25T01:57:18.155Z,1.70
2023-03-25T01:59:45.031Z,1.90
2023-03-25T02:02:15.686Z,1.67
2023-03-25T02:04:59.164Z,1.93
2023-03-25T02:07:31.081Z,2.10
2023-03-25T02:10:04.703Z,3.40
2023-03-25T02:12:31.519Z,2.13
2023-03-25T02:15:00.756Z,2.73
2023-03-25T02:17:54.228Z,2.17
2023-03-25T02:20:41.838Z,2.83
2023-03-25T02:23:42.300Z,1.93
2023-03-25T02:26:33.571Z,2.23
2023-03-25T02:29:14.655Z,2.13
2023-03-25T02:32:16.349Z,9.13
2023-03-25T02:35:01.618Z,4.70
2023-03-25T02:37:58.447Z,2.63
2023-03-25T02:40:28.373Z,2.20
2023-03-25T02:43:02.327Z,2.33
2023-03-25T02:45:34.701Z,2.67
2023-03-25T02:48:53.953Z,2.70
2023-03-25T02:51:41.115Z,2.20
2023-03-25T02:54:11.229Z,2.23
2023-03-25T02:56:38.134Z,2.20
2023-03-25T02:59:05.210Z,2.23
2023-03-25T03:01:34.827Z,2.10
2023-03-25T03:04:01.980Z,1.97
2023-03-25T03:06:28.781Z,2.77
2023-03-25T03:09:02.679Z,1.87
2023-03-25T03:11:38.712Z,2.43
2023-03-25T03:14:30.535Z,2.27
2023-03-25T03:17:13.505Z,1.90
2023-03-25T03:19:49.820Z,2.00
2023-03-25T03:22:42.578Z,2.00
2023-03-25T03:25:21.964Z,2.50
2023-03-25T03:28:06.535Z,2.37
2023-03-25T03:30:49.419Z,2.53
2023-03-25T03:33:42.001Z,2.70
2023-03-25T03:36:11.074Z,3.37
2023-03-25T03:38:45.510Z,2.57
2023-03-25T03:41:18.188Z,2.27
2023-03-25T03:44:04.385Z,2.10
2023-03-25T03:46:36.444Z,2.80
2023-03-25T03:49:09.113Z,2.70
2023-03-25T03:51:46.738Z,2.57
2023-03-25T03:54:32.810Z,1.93
2023-03-25T03:57:03.120Z,2.00
2023-03-25T04:00:06.720Z,2.43
2023-03-25T04:02:43.125Z,2.53
2023-03-25T04:05:11.930Z,2.40
2023-03-25T04:07:54.831Z,2.60
2023-03-25T04:10:22.193Z,2.37
2023-03-25T04:12:52.153Z,2.43
2023-03-25T04:15:19.187Z,2.23
2023-03-25T04:17:48.228Z,2.23
2023-03-25T04:20:17.114Z,1.80
2023-03-25T04:22:46.017Z,2.43
2023-03-25T04:25:13.912Z,2.50
2023-03-25T04:27:40.582Z,2.37
2023-03-25T04:30:08.836Z,3.40
2023-03-25T04:32:35.436Z,2.63
2023-03-25T04:35:02.617Z,3.27
2023-03-25T04:37:29.307Z,2.83
2023-03-25T04:40:00.150Z,2.33
2023-03-25T04:42:32.810Z,2.20
2023-03-25T04:44:59.943Z,2.43
2023-03-25T04:47:26.810Z,2.60
2023-03-25T04:49:53.331Z,2.50
2023-03-25T04:52:19.962Z,2.10
2023-03-25T04:54:46.581Z,2.40
2023-03-25T04:57:13.283Z,3.73
2023-03-25T04:59:39.819Z,2.73
2023-03-25T05:02:07.051Z,3.30
2023-03-25T05:04:33.988Z,3.57
2023-03-25T05:07:00.539Z,15.73
2023-03-25T05:09:27.251Z,19.50
2023-03-25T05:11:54.310Z,10.20
2023-03-25T05:14:21.813Z,3.83
2023-03-25T05:16:48.960Z,4.43
2023-03-25T05:19:16.332Z,2.30
2023-03-25T05:21:42.936Z,2.60
2023-03-25T05:24:11.575Z,3.47
2023-03-25T05:26:39.838Z,3.07
2023-03-25T05:29:14.274Z,2.43
2023-03-25T05:31:45.769Z,2.53
2023-03-25T05:34:14.758Z,2.47
2023-03-25T05:36:42.098Z,2.20
2023-03-25T05:39:08.877Z,8.00
2023-03-25T05:41:39.055Z,17.73
2023-03-25T05:44:07.156Z,9.07
2023-03-25T05:46:33.842Z,4.93
2023-03-25T05:49:03.348Z,4.33
2023-03-25T05:51:37.672Z,4.27
2023-03-25T05:54:11.975Z,19.93
2023-03-25T05:56:39.163Z,12.73
2023-03-25T05:59:05.699Z,8.90
2023-03-25T06:01:34.289Z,6.50
2023-03-25T06:04:02.218Z,5.10
2023-03-25T06:06:29.940Z,4.37
2023-03-25T06:08:56.483Z,3.63
2023-03-25T06:11:23.093Z,3.47
2023-03-25T06:13:51.650Z,3.97
2023-03-25T06:16:20.999Z,5.47
2023-03-25T06:18:51.164Z,3.60
2023-03-25T06:21:19.255Z,3.50
2023-03-25T06:23:48.472Z,3.63
2023-03-25T06:26:16.632Z,3.07
2023-03-25T06:28:43.698Z,3.43
2023-03-25T06:31:17.178Z,3.53
2023-03-25T06:33:45.155Z,4.30
2023-03-25T06:36:13.058Z,3.60
2023-03-25T06:38:40.135Z,3.50
2023-03-25T06:41:07.241Z,3.17
2023-03-25T06:43:34.688Z,2.07
2023-03-25T06:46:01.316Z,4.67
2023-03-25T06:48:28.064Z,10.80
2023-03-25T06:50:54.536Z,5.57
2023-03-25T06:53:21.447Z,3.70
2023-03-25T06:55:48.297Z,5.10
2023-03-25T06:58:14.973Z,5.27
2023-03-25T07:00:42.104Z,4.73
2023-03-25T07:03:08.612Z,6.20
2023-03-25T07:05:35.351Z,4.80
2023-03-25T07:08:02.019Z,5.20
2023-03-25T07:10:28.751Z,2.60
2023-03-25T07:12:55.186Z,2.67
2023-03-25T07:15:21.791Z,3.43
2023-03-25T07:17:49.574Z,3.30
2023-03-25T07:20:17.212Z,3.27
2023-03-25T07:22:44.172Z,3.53
2023-03-25T07:25:10.725Z,4.40
2023-03-25T07:27:37.258Z,3.70
2023-03-25T07:30:04.886Z,3.50
2023-03-25T07:32:31.549Z,2.07
2023-03-25T07:34:58.167Z,1.90
2023-03-25T07:37:24.725Z,2.00
2023-03-25T07:39:51.327Z,2.70
2023-03-25T07:42:17.860Z,2.63
2023-03-25T07:44:44.312Z,4.90
2023-03-25T07:47:11.018Z,3.97
2023-03-25T07:49:40.916Z,2.73
2023-03-25T07:52:07.963Z,2.17
2023-03-25T07:54:34.598Z,2.97
2023-03-25T07:57:01.160Z,5.60
2023-03-25T07:59:29.388Z,3.13
2023-03-25T08:01:56.154Z,3.33
2023-03-25T08:04:22.745Z,3.40
2023-03-25T08:06:49.330Z,2.37
2023-03-25T08:09:15.847Z,3.13
2023-03-25T08:11:42.494Z,2.97
2023-03-25T08:14:09.404Z,2.63
2023-03-25T08:16:36.074Z,6.33
2023-03-25T08:19:02.993Z,4.60
2023-03-25T08:21:30.085Z,5.70
2023-03-25T08:24:04.631Z,4.40
2023-03-25T08:26:33.675Z,3.53
2023-03-25T08:29:02.861Z,3.90
2023-03-25T08:31:31.856Z,2.40
2023-03-25T08:34:02.276Z,2.70
2023-03-25T08:36:29.329Z,3.23
2023-03-25T08:38:56.330Z,2.80
2023-03-25T08:41:23.062Z,3.20
2023-03-25T08:43:50.299Z,3.40
2023-03-25T08:46:17.327Z,2.90
2023-03-25T08:48:44.529Z,2.63
2023-03-25T08:51:11.161Z,2.20
2023-03-25T08:53:37.996Z,2.40
2023-03-25T08:56:05.194Z,4.57
2023-03-25T08:58:31.677Z,2.83
2023-03-25T09:00:58.424Z,3.37
2023-03-25T09:03:27.235Z,2.07
2023-03-25T09:05:54.146Z,2.00
2023-03-25T09:08:21.078Z,2.13
2023-03-25T09:10:48.034Z,1.70
2023-03-25T09:13:14.675Z,2.13
2023-03-25T09:15:41.254Z,2.07
2023-03-25T09:18:08.243Z,1.80
2023-03-25T09:20:34.892Z,1.90
2023-03-25T09:23:01.427Z,2.93
2023-03-25T09:25:28.542Z,2.73
2023-03-25T09:27:55.260Z,2.10
2023-03-25T09:30:21.866Z,2.30
2023-03-25T09:32:48.380Z,1.90
2023-03-25T09:35:14.980Z,1.83
2023-03-25T09:37:41.518Z,1.67
2023-03-25T09:40:09.262Z,2.10
2023-03-25T09:42:49.033Z,2.00
2023-03-25T09:45:29.395Z,1.90
2023-03-25T09:47:58.953Z,1.73
2023-03-25T09:50:26.172Z,2.00
2023-03-25T09:53:00.195Z,2.50
2023-03-25T09:55:31.131Z,2.40
2023-03-25T09:58:05.074Z,2.60
2023-03-25T10:00:31.825Z,1.90
2023-03-25T10:03:24.050Z,1.97
2023-03-25T10:06:12.531Z,2.70
2023-03-25T10:09:17.331Z,2.50
2023-03-25T10:12:13.374Z,2.50
2023-03-25T10:15:34.178Z,2.10
2023-03-25T10:18:57.742Z,2.00
2023-03-25T10:21:51.948Z,2.00
2023-03-25T10:24:40.711Z,2.03
2023-03-25T10:27:24.162Z,2.40
2023-03-25T10:29:54.895Z,2.87
2023-03-25T10:32:31.860Z,2.33
2023-03-25T10:34:59.974Z,2.60
2023-03-25T10:37:31.402Z,2.63
2023-03-25T10:40:00.802Z,2.33
2023-03-25T10:42:32.223Z,2.20
2023-03-25T10:44:59.080Z,2.27
2023-03-25T10:47:31.672Z,2.07
2023-03-25T10:49:59.466Z,1.97
2023-03-25T10:52:26.274Z,1.80
2023-03-25T10:54:54.980Z,2.27
2023-03-25T10:57:29.949Z,2.43
2023-03-25T11:00:19.352Z,1.60
2023-03-25T11:02:47.156Z,1.60
2023-03-25T11:05:18.923Z,2.40
2023-03-25T11:07:55.167Z,2.17
2023-03-25T11:10:25.162Z,2.07
2023-03-25T11:12:52.794Z,1.90
2023-03-25T11:15:22.844Z,2.50
2023-03-25T11:18:00.719Z,1.50
2023-03-25T11:20:45.805Z,1.60
2023-03-25T11:23:27.342Z,1.93
2023-03-25T11:26:02.828Z,2.50
2023-03-25T11:28:50.278Z,1.93
2023-03-25T11:31:21.600Z,1.80
2023-03-25T11:34:21.673Z,2.00
2023-03-25T11:36:55.059Z,2.33
2023-03-25T11:39:33.509Z,2.07
2023-03-25T11:42:01.140Z,2.00
2023-03-25T11:44:30.027Z,1.90
2023-03-25T11:47:08.345Z,1.90
2023-03-25T11:49:40.134Z,2.00
2023-03-25T11:52:09.754Z,1.80
2023-03-25T11:54:37.609Z,1.97
2023-03-25T11:57:06.453Z,2.53
2023-03-25T11:59:39.561Z,1.80
2023-03-25T12:02:27.302Z,2.07
2023-03-25T12:05:09.095Z,1.93
2023-03-25T12:07:42.479Z,2.03
2023-03-25T12:10:20.390Z,2.83
2023-03-25T12:13:03.500Z,1.77
2023-03-25T12:16:03.694Z,2.73
2023-03-25T12:18:38.273Z,2.30
2023-03-25T12:21:27.371Z,2.23
2023-03-25T12:24:04.450Z,2.40
2023-03-25T12:26:45.790Z,3.10
2023-03-25T12:29:31.171Z,1.80
2023-03-25T12:32:07.943Z,5.60
2023-03-25T12:34:59.638Z,5.50
2023-03-25T12:37:35.853Z,4.50
2023-03-25T12:40:27.916Z,3.07
2023-03-25T12:43:04.956Z,1.60
2023-03-25T12:46:02.330Z,2.50
2023-03-25T12:48:28.980Z,2.43
2023-03-25T12:51:16.855Z,1.90
2023-03-25T12:54:04.268Z,2.00
2023-03-25T12:56:40.691Z,1.90
2023-03-25T12:59:16.434Z,2.43
2023-03-25T13:02:02.169Z,2.00
2023-03-25T13:04:59.780Z,1.50
2023-03-25T13:07:28.820Z,1.77
2023-03-25T13:10:17.721Z,1.80
2023-03-25T13:12:56.731Z,2.50
2023-03-25T13:15:35.504Z,1.87
2023-03-25T13:18:02.313Z,2.00
2023-03-25T13:20:31.517Z,1.93
2023-03-25T13:23:04.760Z,1.60
2023-03-25T13:25:54.579Z,1.90
2023-03-25T13:28:29.142Z,1.60
2023-03-25T13:30:57.396Z,2.60
2023-03-25T13:33:28.188Z,2.10
2023-03-25T13:36:14.321Z,2.20
2023-03-25T13:38:50.459Z,1.97
2023-03-25T13:41:28.429Z,1.63
2023-03-25T13:44:16.604Z,1.70
2023-03-25T13:46:46.952Z,2.13
2023-03-25T13:49:27.859Z,1.80
2023-03-25T13:51:54.976Z,2.37
2023-03-25T13:54:35.424Z,2.10
2023-03-25T13:57:32.558Z,2.47
2023-03-25T14:00:11.419Z,2.47
2023-03-25T14:02:51.848Z,1.97
2023-03-25T14:05:27.714Z,1.70
2023-03-25T14:08:02.060Z,1.73
2023-03-25T14:10:59.647Z,2.07
2023-03-25T14:13:32.636Z,1.97
2023-03-25T14:16:04.272Z,1.73
2023-03-25T14:18:32.294Z,1.90
2023-03-25T14:21:13.763Z,1.40
2023-03-25T14:23:41.829Z,2.23
2023-03-25T14:26:10.284Z,2.00
2023-03-25T14:28:43.175Z,2.20
2023-03-25T14:31:25.792Z,1.97
2023-03-25T14:34:02.225Z,1.47
2023-03-25T14:36:30.711Z,1.53
2023-03-25T14:38:58.133Z,2.00
2023-03-25T14:42:17.681Z,1.93
2023-03-25T14:44:49.606Z,2.20
2023-03-25T14:47:16.351Z,1.70
2023-03-25T14:50:20.737Z,2.33
2023-03-25T14:52:52.734Z,5.57
2023-03-25T14:55:28.593Z,6.37
2023-03-25T14:58:05.002Z,1.80
2023-03-25T15:00:41.400Z,1.67
2023-03-25T15:03:17.824Z,1.60
2023-03-25T15:05:45.400Z,2.23
2023-03-25T15:08:17.509Z,2.93
2023-03-25T15:10:48.888Z,2.00
2023-03-25T15:13:42.603Z,2.47
2023-03-25T15:16:29.440Z,16.13
2023-03-25T15:18:56.013Z,7.50
2023-03-25T15:21:25.989Z,2.00
2023-03-25T15:24:07.801Z,1.77
2023-03-25T15:26:38.561Z,2.67
2023-03-25T15:29:12.400Z,1.97
2023-03-25T15:32:05.158Z,4.20
2023-03-25T15:34:44.766Z,1.73
2023-03-25T15:37:46.632Z,1.93
2023-03-25T15:40:27.798Z,1.90
2023-03-25T15:43:19.176Z,1.90
2023-03-25T15:46:07.018Z,2.33
2023-03-25T15:48:45.831Z,1.80
2023-03-25T15:51:32.370Z,1.53
2023-03-25T15:54:11.012Z,1.93
2023-03-25T15:56:42.033Z,1.60
2023-03-25T15:59:21.456Z,2.10
2023-03-25T16:01:49.970Z,1.90
2023-03-25T16:04:31.730Z,2.33
2023-03-25T16:06:59.689Z,2.00
2023-03-25T16:09:28.821Z,1.87
2023-03-25T16:12:02.855Z,1.33
2023-03-25T16:14:32.007Z,1.73
2023-03-25T16:17:01.280Z,1.73
2023-03-25T16:19:34.898Z,1.60
2023-03-25T16:22:03.947Z,1.80
2023-03-25T16:24:34.180Z,2.60
2023-03-25T16:27:10.827Z,2.20
2023-03-25T16:29:38.088Z,9.00
2023-03-25T16:32:05.230Z,8.33
2023-03-25T16:34:38.013Z,2.23
2023-03-25T16:37:06.129Z,1.90
2023-03-25T16:39:34.992Z,2.20
2023-03-25T16:42:07.947Z,2.23
2023-03-25T16:44:34.784Z,1.80
2023-03-25T16:47:02.500Z,1.80
2023-03-25T16:49:37.319Z,2.03
2023-03-25T16:52:09.212Z,2.80
2023-03-25T16:54:50.876Z,2.93
2023-03-25T16:57:24.612Z,1.93
2023-03-25T16:59:53.193Z,2.70
2023-03-25T17:02:43.022Z,2.10
2023-03-25T17:05:24.672Z,2.97
2023-03-25T17:08:08.043Z,2.03
2023-03-25T17:10:48.214Z,2.30
2023-03-25T17:13:26.443Z,1.77
2023-03-25T17:15:53.189Z,2.50
2023-03-25T17:18:21.391Z,2.47
2023-03-25T17:20:49.412Z,4.07
2023-03-25T17:23:19.186Z,4.37
2023-03-25T17:26:02.161Z,3.40
2023-03-25T17:28:40.214Z,3.57
2023-03-25T17:31:24.999Z,7.13
2023-03-25T17:33:59.633Z,4.23
2023-03-25T17:36:26.365Z,4.40
2023-03-25T17:38:56.079Z,4.40
2023-03-25T17:41:27.807Z,4.40
2023-03-25T17:44:00.338Z,4.00
2023-03-25T17:46:29.307Z,4.07
2023-03-25T17:48:59.733Z,4.40
2023-03-25T17:51:29.391Z,4.50
2023-03-25T17:53:56.183Z,4.03
2023-03-25T17:56:26.696Z,4.47
2023-03-25T17:59:02.228Z,4.67
2023-03-25T18:01:30.924Z,4.33
2023-03-25T18:03:57.501Z,4.93
2023-03-25T18:06:24.442Z,4.60
2023-03-25T18:08:51.659Z,4.17
2023-03-25T18:11:18.347Z,4.30
2023-03-25T18:13:48.235Z,3.83
2023-03-25T18:16:19.799Z,3.80
2023-03-25T18:18:46.784Z,4.53
2023-03-25T18:21:15.686Z,7.83
2023-03-25T18:23:48.021Z,6.33
2023-03-25T18:26:17.434Z,4.77
2023-03-25T18:28:48.712Z,4.20
2023-03-25T18:31:17.495Z,4.83
2023-03-25T18:33:46.223Z,4.43
2023-03-25T18:36:13.332Z,4.00
2023-03-25T18:38:40.159Z,4.27
2023-03-25T18:41:07.445Z,4.40
2023-03-25T18:43:33.997Z,3.90
2023-03-25T18:46:00.665Z,4.37
2023-03-25T18:48:27.420Z,3.80
2023-03-25T18:50:55.657Z,5.60
2023-03-25T18:53:24.715Z,6.03
2023-03-25T18:55:51.415Z,6.17
2023-03-25T18:58:22.912Z,5.20
2023-03-25T19:00:51.484Z,4.97
2023-03-25T19:03:19.233Z,4.90
2023-03-25T19:05:46.324Z,4.93
2023-03-25T19:08:17.100Z,5.17
2023-03-25T19:10:43.941Z,13.30
2023-03-25T19:13:10.789Z,10.40
2023-03-25T19:15:37.463Z,8.13
2023-03-25T19:18:04.312Z,6.90
2023-03-25T19:20:34.019Z,5.90
2023-03-25T19:23:01.814Z,5.30
2023-03-25T19:25:28.865Z,4.97
2023-03-25T19:27:56.683Z,4.43
2023-03-25T19:30:24.252Z,5.10
2023-03-25T19:32:54.049Z,3.83
2023-03-25T19:35:23.319Z,5.10
2023-03-25T19:37:53.126Z,5.00
2023-03-25T19:40:24.084Z,4.60
2023-03-25T19:42:54.535Z,5.73
2023-03-25T19:45:21.499Z,6.23
2023-03-25T19:47:48.283Z,6.20
2023-03-25T19:50:18.986Z,5.93
2023-03-25T19:52:47.261Z,7.57
2023-03-25T19:55:14.241Z,6.50
2023-03-25T19:57:42.284Z,5.37
2023-03-25T20:00:14.609Z,5.80
2023-03-25T20:02:46.623Z,6.27
2023-03-25T20:05:13.974Z,6.20
2023-03-25T20:07:41.589Z,4.77
2023-03-25T20:12:44.086Z,5.23
2023-03-25T20:15:11.317Z,4.73
2023-03-25T20:17:38.443Z,6.97
2023-03-25T20:20:09.945Z,7.10
2023-03-25T20:22:37.359Z,6.50
2023-03-25T20:25:04.788Z,6.27
2023-03-25T20:27:31.765Z,6.77
2023-03-25T20:29:58.280Z,6.07
2023-03-25T20:32:34.096Z,5.30
2023-03-25T20:35:07.533Z,4.63
2023-03-25T20:37:36.904Z,5.07
2023-03-25T20:40:05.280Z,27.57
2023-03-25T20:42:31.880Z,26.90
2023-03-25T20:44:58.573Z,7.20
2023-03-25T20:47:25.030Z,7.90
2023-03-25T20:49:51.556Z,6.17
2023-03-25T20:52:18.126Z,5.20
2023-03-25T20:54:44.748Z,4.53
2023-03-25T20:57:11.657Z,8.13
2023-03-25T20:59:39.578Z,4.70
2023-03-25T21:02:06.772Z,4.73
2023-03-25T21:04:33.399Z,5.50
2023-03-25T21:07:00.139Z,5.80
2023-03-25T21:09:26.868Z,4.97
2023-03-25T21:11:53.493Z,5.63
2023-03-25T21:14:20.061Z,5.87
2023-03-25T21:16:46.911Z,5.40
2023-03-25T21:19:13.847Z,5.67
2023-03-25T21:21:40.637Z,5.13
2023-03-25T21:24:07.749Z,4.97
2023-03-25T21:26:34.869Z,4.83
2023-03-25T21:29:01.578Z,4.80
2023-03-25T21:31:29.506Z,4.43
2023-03-25T21:33:56.873Z,5.60
2023-03-25T21:36:26.516Z,5.87
2023-03-25T21:38:58.591Z,4.00
2023-03-25T21:41:26.206Z,4.33
2023-03-25T21:43:53.297Z,4.13
2023-03-25T21:46:27.551Z,4.13
2023-03-25T21:48:58.704Z,4.20
2023-03-25T21:51:26.622Z,4.87
2023-03-25T21:53:53.537Z,4.17
2023-03-25T21:56:24.615Z,4.10
2023-03-25T21:58:51.689Z,4.47
2023-03-25T22:01:23.316Z,4.90
2023-03-25T22:03:54.201Z,4.87
2023-03-25T22:06:24.573Z,15.83
2023-03-25T22:08:51.709Z,7.57
2023-03-25T22:11:24.278Z,4.00
2023-03-25T22:13:51.520Z,4.07
2023-03-25T22:16:19.440Z,3.10
2023-03-25T22:18:46.608Z,4.23
2023-03-25T22:21:19.482Z,4.30
2023-03-25T22:23:47.354Z,4.10
2023-03-25T22:26:15.779Z,4.00
2023-03-25T22:28:42.913Z,4.87
2023-03-25T22:31:15.811Z,4.63
2023-03-25T22:33:42.949Z,4.43
2023-03-25T22:36:14.617Z,3.67
2023-03-25T22:38:44.173Z,6.87
2023-03-25T22:41:12.260Z,7.37
2023-03-25T22:43:39.266Z,5.60
2023-03-25T22:46:06.914Z,4.53
2023-03-25T22:48:34.116Z,3.67
2023-03-25T22:51:00.950Z,3.90
2023-03-25T22:53:27.840Z,3.63
2023-03-25T22:55:56.593Z,3.80
2023-03-25T22:58:26.280Z,3.40
2023-03-25T23:00:54.157Z,3.40
2023-03-25T23:03:21.223Z,3.40
2023-03-25T23:05:58.543Z,3.20
2023-03-25T23:08:30.143Z,3.70
2023-03-25T23:11:00.852Z,2.90
2023-03-25T23:13:27.989Z,3.23
2023-03-25T23:16:02.763Z,3.10
2023-03-25T23:18:29.696Z,3.10
2023-03-25T23:20:56.863Z,3.07
2023-03-25T23:23:24.698Z,2.67
2023-03-25T23:26:14.753Z,3.27
2023-03-25T23:28:41.882Z,2.97
2023-03-25T23:31:19.502Z,3.00
2023-03-25T23:33:50.911Z,3.93
2023-03-25T23:36:21.411Z,3.27
2023-03-25T23:38:48.136Z,3.17
2023-03-25T23:41:17.001Z,2.90
2023-03-25T23:43:44.160Z,3.20
2023-03-25T23:46:12.355Z,3.30
2023-03-25T23:48:43.103Z,3.33
2023-03-25T23:51:17.461Z,2.87
2023-03-25T23:53:46.951Z,3.60
2023-03-25T23:56:15.863Z,3.27
2023-03-25T23:58:42.588Z,3.10
